Millstone, West Virginia
Current Conditions -  °F | °C
As of 2:54 PM on Sunday 25 Jan 2015 (Local Time) from KCRW Reporting Station
Broken Clouds Broken Clouds  
Wind Chill: 48°   Ceiling: 12000
Heat Index: 48°   Visibility: 10mi
Dew Point: 33°   Wind: 3mph
Humidity: 56%   Direction: 210°SSW
Pressure: 29.72"   Gusts: NA
Location:  38.8°N, 81.1°W
Report Text: KCRW 251954Z 21003KT 10SM BKN120 09/01 A2972 RMK AO2 SLP067 T00890006
Loading
Personal Weather Stations






























Interactive Weather Map New forecast layout! Learn more

10-Day Weather Forecast

Advertisements
Track Severe Weather on mobile